sensor_id;sensor_type;location;lat;lon;timestamp;P1;durP1;ratioP1;P2;durP2;ratioP2
26977;SDS011;56314;48.088;11.642;2022-12-16T00:00:13;37.72;;;17.50;;
26977;SDS011;56314;48.088;11.642;2022-12-16T00:02:40;31.05;;;16.48;;
26977;SDS011;56314;48.088;11.642;2022-12-16T00:05:05;34.08;;;15.98;;
26977;SDS011;56314;48.088;11.642;2022-12-16T00:07:32;30.85;;;17.45;;
26977;SDS011;56314;48.088;11.642;2022-12-16T00:09:57;37.08;;;17.77;;
26977;SDS011;56314;48.088;11.642;2022-12-16T00:12:23;33.33;;;16.02;;
26977;SDS011;56314;48.088;11.642;2022-12-16T00:14:48;31.60;;;16.77;;
26977;SDS011;56314;48.088;11.642;2022-12-16T00:17:13;33.72;;;18.10;;
26977;SDS011;56314;48.088;11.642;2022-12-16T00:19:39;31.30;;;17.00;;
26977;SDS011;56314;48.088;11.642;2022-12-16T00:22:04;33.75;;;17.55;;
26977;SDS011;56314;48.088;11.642;2022-12-16T00:24:29;33.00;;;16.92;;
26977;SDS011;56314;48.088;11.642;2022-12-16T00:26:55;34.42;;;18.02;;
26977;SDS011;56314;48.088;11.642;2022-12-16T00:29:20;40.20;;;18.80;;
26977;SDS011;56314;48.088;11.642;2022-12-16T00:31:46;38.08;;;18.65;;
26977;SDS011;56314;48.088;11.642;2022-12-16T00:34:12;35.55;;;17.80;;
26977;SDS011;56314;48.088;11.642;2022-12-16T00:36:41;33.60;;;17.42;;
26977;SDS011;56314;48.088;11.642;2022-12-16T00:39:07;33.88;;;16.65;;
26977;SDS011;56314;48.088;11.642;2022-12-16T00:41:33;38.92;;;18.50;;
26977;SDS011;56314;48.088;11.642;2022-12-16T00:43:59;38.65;;;18.02;;
26977;SDS011;56314;48.088;11.642;2022-12-16T00:46:24;41.88;;;19.30;;
26977;SDS011;56314;48.088;11.642;2022-12-16T00:48:49;41.20;;;19.67;;
26977;SDS011;56314;48.088;11.642;2022-12-16T00:51:15;36.97;;;18.25;;
26977;SDS011;56314;48.088;11.642;2022-12-16T00:53:40;39.47;;;18.95;;
26977;SDS011;56314;48.088;11.642;2022-12-16T00:56:06;41.08;;;19.63;;
26977;SDS011;56314;48.088;11.642;2022-12-16T00:58:33;37.97;;;19.65;;
26977;SDS011;56314;48.088;11.642;2022-12-16T01:00:59;41.88;;;18.67;;
26977;SDS011;56314;48.088;11.642;2022-12-16T01:03:25;40.08;;;18.55;;
26977;SDS011;56314;48.088;11.642;2022-12-16T01:05:50;36.35;;;18.88;;
26977;SDS011;56314;48.088;11.642;2022-12-16T01:08:15;36.60;;;17.35;;
26977;SDS011;56314;48.088;11.642;2022-12-16T01:10:41;36.88;;;19.02;;
26977;SDS011;56314;48.088;11.642;2022-12-16T01:13:06;34.42;;;16.58;;
26977;SDS011;56314;48.088;11.642;2022-12-16T01:15:31;39.80;;;18.73;;
26977;SDS011;56314;48.088;11.642;2022-12-16T01:17:57;37.33;;;17.98;;
26977;SDS011;56314;48.088;11.642;2022-12-16T01:20:22;37.75;;;18.35;;
26977;SDS011;56314;48.088;11.642;2022-12-16T01:22:47;38.65;;;18.92;;
26977;SDS011;56314;48.088;11.642;2022-12-16T01:25:13;38.40;;;18.60;;
26977;SDS011;56314;48.088;11.642;2022-12-16T01:27:38;37.88;;;19.30;;
26977;SDS011;56314;48.088;11.642;2022-12-16T01:30:04;41.95;;;19.83;;
26977;SDS011;56314;48.088;11.642;2022-12-16T01:32:29;38.40;;;19.00;;
26977;SDS011;56314;48.088;11.642;2022-12-16T01:34:55;37.38;;;17.90;;
26977;SDS011;56314;48.088;11.642;2022-12-16T01:37:21;37.20;;;18.35;;
26977;SDS011;56314;48.088;11.642;2022-12-16T01:39:47;40.30;;;20.42;;
26977;SDS011;56314;48.088;11.642;2022-12-16T01:42:14;39.63;;;18.92;;
26977;SDS011;56314;48.088;11.642;2022-12-16T01:44:44;39.08;;;19.35;;
26977;SDS011;56314;48.088;11.642;2022-12-16T01:47:12;43.20;;;18.58;;
26977;SDS011;56314;48.088;11.642;2022-12-16T01:49:42;36.40;;;17.27;;
26977;SDS011;56314;48.088;11.642;2022-12-16T01:52:11;38.47;;;17.92;;
26977;SDS011;56314;48.088;11.642;2022-12-16T01:54:42;36.85;;;17.65;;
26977;SDS011;56314;48.088;11.642;2022-12-16T01:57:12;37.55;;;18.55;;
26977;SDS011;56314;48.088;11.642;2022-12-16T01:59:43;37.67;;;17.30;;
26977;SDS011;56314;48.088;11.642;2022-12-16T02:02:12;37.40;;;17.90;;
26977;SDS011;56314;48.088;11.642;2022-12-16T02:04:38;38.67;;;17.63;;
26977;SDS011;56314;48.088;11.642;2022-12-16T02:07:22;40.50;;;18.35;;
26977;SDS011;56314;48.088;11.642;2022-12-16T02:09:48;37.58;;;17.80;;
26977;SDS011;56314;48.088;11.642;2022-12-16T02:12:17;36.65;;;18.10;;
26977;SDS011;56314;48.088;11.642;2022-12-16T02:17:58;37.60;;;19.15;;
26977;SDS011;56314;48.088;11.642;2022-12-16T02:36:43;35.85;;;17.95;;
26977;SDS011;56314;48.088;11.642;2022-12-16T02:39:33;36.60;;;17.65;;
26977;SDS011;56314;48.088;11.642;2022-12-16T02:42:24;39.65;;;19.23;;
26977;SDS011;56314;48.088;11.642;2022-12-16T02:47:44;39.75;;;19.48;;
26977;SDS011;56314;48.088;11.642;2022-12-16T02:50:14;41.70;;;19.00;;
26977;SDS011;56314;48.088;11.642;2022-12-16T02:52:42;37.17;;;18.65;;
26977;SDS011;56314;48.088;11.642;2022-12-16T02:55:08;38.22;;;19.30;;
26977;SDS011;56314;48.088;11.642;2022-12-16T02:57:43;33.47;;;17.20;;
26977;SDS011;56314;48.088;11.642;2022-12-16T03:00:17;38.08;;;19.60;;
26977;SDS011;56314;48.088;11.642;2022-12-16T03:05:33;34.33;;;17.90;;
26977;SDS011;56314;48.088;11.642;2022-12-16T03:08:06;32.85;;;18.38;;
26977;SDS011;56314;48.088;11.642;2022-12-16T03:10:43;35.08;;;18.63;;
26977;SDS011;56314;48.088;11.642;2022-12-16T03:13:12;34.95;;;20.02;;
26977;SDS011;56314;48.088;11.642;2022-12-16T03:15:41;36.38;;;20.45;;
26977;SDS011;56314;48.088;11.642;2022-12-16T03:18:08;34.15;;;19.67;;
26977;SDS011;56314;48.088;11.642;2022-12-16T03:23:30;35.65;;;20.85;;
26977;SDS011;56314;48.088;11.642;2022-12-16T03:26:01;35.60;;;20.55;;
26977;SDS011;56314;48.088;11.642;2022-12-16T03:31:08;39.72;;;22.42;;
26977;SDS011;56314;48.088;11.642;2022-12-16T03:33:44;38.08;;;21.48;;
26977;SDS011;56314;48.088;11.642;2022-12-16T03:38:45;40.58;;;21.75;;
26977;SDS011;56314;48.088;11.642;2022-12-16T03:41:11;40.72;;;22.52;;
26977;SDS011;56314;48.088;11.642;2022-12-16T03:43:39;44.25;;;22.98;;
26977;SDS011;56314;48.088;11.642;2022-12-16T03:46:05;41.97;;;24.05;;
26977;SDS011;56314;48.088;11.642;2022-12-16T03:48:32;40.80;;;23.02;;
26977;SDS011;56314;48.088;11.642;2022-12-16T03:50:58;44.85;;;25.15;;
26977;SDS011;56314;48.088;11.642;2022-12-16T03:53:23;46.40;;;26.15;;
26977;SDS011;56314;48.088;11.642;2022-12-16T03:55:51;41.75;;;24.13;;
26977;SDS011;56314;48.088;11.642;2022-12-16T03:58:17;44.83;;;23.92;;
26977;SDS011;56314;48.088;11.642;2022-12-16T04:00:42;46.53;;;25.52;;
26977;SDS011;56314;48.088;11.642;2022-12-16T04:03:08;42.63;;;23.92;;
26977;SDS011;56314;48.088;11.642;2022-12-16T04:05:34;36.03;;;20.33;;
26977;SDS011;56314;48.088;11.642;2022-12-16T04:07:59;35.75;;;21.25;;
26977;SDS011;56314;48.088;11.642;2022-12-16T04:10:24;32.13;;;19.58;;
26977;SDS011;56314;48.088;11.642;2022-12-16T04:13:08;37.25;;;21.88;;
26977;SDS011;56314;48.088;11.642;2022-12-16T04:15:53;35.22;;;20.50;;
26977;SDS011;56314;48.088;11.642;2022-12-16T04:18:38;34.30;;;19.48;;
26977;SDS011;56314;48.088;11.642;2022-12-16T04:21:22;38.22;;;20.88;;
26977;SDS011;56314;48.088;11.642;2022-12-16T04:24:07;39.97;;;21.55;;
26977;SDS011;56314;48.088;11.642;2022-12-16T04:26:44;35.78;;;20.58;;
26977;SDS011;56314;48.088;11.642;2022-12-16T04:31:54;40.88;;;22.42;;
26977;SDS011;56314;48.088;11.642;2022-12-16T04:34:20;39.85;;;23.73;;
26977;SDS011;56314;48.088;11.642;2022-12-16T04:36:56;40.40;;;21.88;;
26977;SDS011;56314;48.088;11.642;2022-12-16T04:39:41;41.83;;;22.00;;
26977;SDS011;56314;48.088;11.642;2022-12-16T04:42:26;42.85;;;23.08;;
26977;SDS011;56314;48.088;11.642;2022-12-16T04:45:09;36.30;;;20.02;;
26977;SDS011;56314;48.088;11.642;2022-12-16T04:47:53;45.42;;;26.63;;
26977;SDS011;56314;48.088;11.642;2022-12-16T04:50:38;44.85;;;26.25;;
26977;SDS011;56314;48.088;11.642;2022-12-16T04:53:23;45.63;;;25.13;;
26977;SDS011;56314;48.088;11.642;2022-12-16T04:56:08;50.92;;;26.00;;
26977;SDS011;56314;48.088;11.642;2022-12-16T04:58:52;47.05;;;25.75;;
26977;SDS011;56314;48.088;11.642;2022-12-16T05:01:36;49.50;;;27.17;;
26977;SDS011;56314;48.088;11.642;2022-12-16T05:04:20;39.78;;;21.00;;
26977;SDS011;56314;48.088;11.642;2022-12-16T05:07:04;41.28;;;21.25;;
26977;SDS011;56314;48.088;11.642;2022-12-16T05:09:48;53.35;;;28.15;;
26977;SDS011;56314;48.088;11.642;2022-12-16T05:12:32;57.50;;;27.95;;
26977;SDS011;56314;48.088;11.642;2022-12-16T05:15:16;39.33;;;20.00;;
26977;SDS011;56314;48.088;11.642;2022-12-16T05:18:07;54.67;;;27.77;;
26977;SDS011;56314;48.088;11.642;2022-12-16T05:20:58;53.17;;;28.13;;
26977;SDS011;56314;48.088;11.642;2022-12-16T05:23:44;52.05;;;26.80;;
26977;SDS011;56314;48.088;11.642;2022-12-16T05:26:28;53.22;;;27.52;;
26977;SDS011;56314;48.088;11.642;2022-12-16T05:29:12;44.08;;;22.00;;
26977;SDS011;56314;48.088;11.642;2022-12-16T05:31:56;50.45;;;28.48;;
26977;SDS011;56314;48.088;11.642;2022-12-16T05:34:40;52.60;;;28.67;;
26977;SDS011;56314;48.088;11.642;2022-12-16T05:37:24;57.58;;;30.15;;
26977;SDS011;56314;48.088;11.642;2022-12-16T05:40:25;57.65;;;28.63;;
26977;SDS011;56314;48.088;11.642;2022-12-16T05:43:09;59.03;;;29.80;;
26977;SDS011;56314;48.088;11.642;2022-12-16T05:45:52;59.97;;;29.23;;
26977;SDS011;56314;48.088;11.642;2022-12-16T05:48:36;58.78;;;29.38;;
26977;SDS011;56314;48.088;11.642;2022-12-16T05:51:20;52.97;;;28.38;;
26977;SDS011;56314;48.088;11.642;2022-12-16T05:54:04;44.88;;;22.45;;
26977;SDS011;56314;48.088;11.642;2022-12-16T05:56:48;43.83;;;21.85;;
26977;SDS011;56314;48.088;11.642;2022-12-16T05:59:32;42.58;;;22.10;;
26977;SDS011;56314;48.088;11.642;2022-12-16T06:02:16;38.25;;;20.75;;
26977;SDS011;56314;48.088;11.642;2022-12-16T06:05:00;38.92;;;21.52;;
26977;SDS011;56314;48.088;11.642;2022-12-16T06:07:51;38.45;;;21.00;;
26977;SDS011;56314;48.088;11.642;2022-12-16T06:10:35;56.60;;;29.02;;
26977;SDS011;56314;48.088;11.642;2022-12-16T06:13:19;52.40;;;28.10;;
26977;SDS011;56314;48.088;11.642;2022-12-16T06:16:03;51.28;;;27.15;;
26977;SDS011;56314;48.088;11.642;2022-12-16T06:18:47;58.35;;;29.17;;
26977;SDS011;56314;48.088;11.642;2022-12-16T06:21:31;58.15;;;29.63;;
26977;SDS011;56314;48.088;11.642;2022-12-16T06:24:15;44.63;;;21.88;;
26977;SDS011;56314;48.088;11.642;2022-12-16T06:26:59;44.72;;;23.25;;
26977;SDS011;56314;48.088;11.642;2022-12-16T06:29:43;56.78;;;28.65;;
26977;SDS011;56314;48.088;11.642;2022-12-16T06:32:27;61.10;;;30.43;;
26977;SDS011;56314;48.088;11.642;2022-12-16T06:35:11;42.47;;;20.90;;
26977;SDS011;56314;48.088;11.642;2022-12-16T06:37:55;60.35;;;34.47;;
26977;SDS011;56314;48.088;11.642;2022-12-16T06:40:39;44.67;;;24.17;;
26977;SDS011;56314;48.088;11.642;2022-12-16T06:43:23;55.83;;;29.55;;
26977;SDS011;56314;48.088;11.642;2022-12-16T06:46:06;62.60;;;30.42;;
26977;SDS011;56314;48.088;11.642;2022-12-16T06:48:50;62.28;;;29.83;;
26977;SDS011;56314;48.088;11.642;2022-12-16T06:51:34;46.53;;;23.85;;
26977;SDS011;56314;48.088;11.642;2022-12-16T06:54:18;50.10;;;24.05;;
26977;SDS011;56314;48.088;11.642;2022-12-16T06:57:02;63.75;;;31.48;;
26977;SDS011;56314;48.088;11.642;2022-12-16T06:59:46;61.53;;;31.23;;
26977;SDS011;56314;48.088;11.642;2022-12-16T07:02:30;63.63;;;33.25;;
26977;SDS011;56314;48.088;11.642;2022-12-16T07:05:14;66.97;;;32.88;;
26977;SDS011;56314;48.088;11.642;2022-12-16T07:07:58;50.67;;;23.80;;
26977;SDS011;56314;48.088;11.642;2022-12-16T07:10:42;54.75;;;26.23;;
26977;SDS011;56314;48.088;11.642;2022-12-16T07:13:26;73.25;;;34.88;;
26977;SDS011;56314;48.088;11.642;2022-12-16T07:16:10;53.10;;;25.38;;
26977;SDS011;56314;48.088;11.642;2022-12-16T07:18:54;50.20;;;25.95;;
26977;SDS011;56314;48.088;11.642;2022-12-16T07:21:38;71.88;;;36.65;;
26977;SDS011;56314;48.088;11.642;2022-12-16T07:24:22;71.50;;;35.75;;
26977;SDS011;56314;48.088;11.642;2022-12-16T07:27:06;52.58;;;26.17;;
26977;SDS011;56314;48.088;11.642;2022-12-16T07:29:50;56.80;;;26.65;;
26977;SDS011;56314;48.088;11.642;2022-12-16T07:32:33;71.88;;;35.35;;
26977;SDS011;56314;48.088;11.642;2022-12-16T07:35:18;71.63;;;35.47;;
26977;SDS011;56314;48.088;11.642;2022-12-16T07:38:18;76.35;;;34.97;;
26977;SDS011;56314;48.088;11.642;2022-12-16T07:41:02;83.32;;;39.47;;
26977;SDS011;56314;48.088;11.642;2022-12-16T07:43:46;77.73;;;36.70;;
26977;SDS011;56314;48.088;11.642;2022-12-16T07:46:30;79.50;;;38.17;;
26977;SDS011;56314;48.088;11.642;2022-12-16T07:49:14;85.97;;;39.83;;
26977;SDS011;56314;48.088;11.642;2022-12-16T07:51:58;76.28;;;39.15;;
26977;SDS011;56314;48.088;11.642;2022-12-16T07:54:42;58.75;;;28.60;;
26977;SDS011;56314;48.088;11.642;2022-12-16T07:57:26;82.45;;;38.88;;
26977;SDS011;56314;48.088;11.642;2022-12-16T08:00:14;81.38;;;37.67;;
26977;SDS011;56314;48.088;11.642;2022-12-16T08:02:58;86.93;;;41.70;;
26977;SDS011;56314;48.088;11.642;2022-12-16T08:05:42;77.28;;;37.15;;
26977;SDS011;56314;48.088;11.642;2022-12-16T08:08:26;56.03;;;26.43;;
26977;SDS011;56314;48.088;11.642;2022-12-16T08:11:10;53.15;;;27.10;;
26977;SDS011;56314;48.088;11.642;2022-12-16T08:13:54;68.78;;;32.83;;
26977;SDS011;56314;48.088;11.642;2022-12-16T08:16:38;57.05;;;27.98;;
26977;SDS011;56314;48.088;11.642;2022-12-16T08:19:22;74.70;;;35.63;;
26977;SDS011;56314;48.088;11.642;2022-12-16T08:22:06;73.25;;;35.40;;
26977;SDS011;56314;48.088;11.642;2022-12-16T08:24:51;70.43;;;36.40;;
26977;SDS011;56314;48.088;11.642;2022-12-16T08:27:35;54.08;;;27.70;;
26977;SDS011;56314;48.088;11.642;2022-12-16T08:30:19;77.05;;;36.60;;
26977;SDS011;56314;48.088;11.642;2022-12-16T08:33:03;73.28;;;35.67;;
26977;SDS011;56314;48.088;11.642;2022-12-16T08:35:47;75.57;;;37.55;;
26977;SDS011;56314;48.088;11.642;2022-12-16T08:38:31;72.68;;;35.38;;
26977;SDS011;56314;48.088;11.642;2022-12-16T08:41:15;79.60;;;36.22;;
26977;SDS011;56314;48.088;11.642;2022-12-16T08:43:59;66.50;;;33.35;;
26977;SDS011;56314;48.088;11.642;2022-12-16T08:46:43;67.75;;;33.90;;
26977;SDS011;56314;48.088;11.642;2022-12-16T08:49:27;63.53;;;32.13;;
26977;SDS011;56314;48.088;11.642;2022-12-16T08:52:12;65.20;;;32.90;;
26977;SDS011;56314;48.088;11.642;2022-12-16T08:54:56;65.57;;;32.93;;
26977;SDS011;56314;48.088;11.642;2022-12-16T08:57:40;52.35;;;25.55;;
26977;SDS011;56314;48.088;11.642;2022-12-16T09:00:24;70.40;;;33.60;;
26977;SDS011;56314;48.088;11.642;2022-12-16T09:03:08;72.03;;;35.50;;
26977;SDS011;56314;48.088;11.642;2022-12-16T09:05:56;50.70;;;27.73;;
26977;SDS011;56314;48.088;11.642;2022-12-16T09:08:41;66.32;;;34.22;;
26977;SDS011;56314;48.088;11.642;2022-12-16T09:11:25;55.40;;;27.50;;
26977;SDS011;56314;48.088;11.642;2022-12-16T09:14:09;52.97;;;25.20;;
26977;SDS011;56314;48.088;11.642;2022-12-16T09:16:53;68.28;;;32.53;;
26977;SDS011;56314;48.088;11.642;2022-12-16T09:19:36;70.40;;;36.47;;
26977;SDS011;56314;48.088;11.642;2022-12-16T09:22:21;80.60;;;38.33;;
26977;SDS011;56314;48.088;11.642;2022-12-16T09:25:05;55.13;;;26.70;;
26977;SDS011;56314;48.088;11.642;2022-12-16T09:27:49;66.43;;;33.10;;
26977;SDS011;56314;48.088;11.642;2022-12-16T09:30:33;47.10;;;24.00;;
26977;SDS011;56314;48.088;11.642;2022-12-16T09:33:17;71.07;;;35.50;;
26977;SDS011;56314;48.088;11.642;2022-12-16T09:36:01;64.43;;;33.75;;
26977;SDS011;56314;48.088;11.642;2022-12-16T09:38:45;51.88;;;23.05;;
26977;SDS011;56314;48.088;11.642;2022-12-16T09:50:40;60.00;;;31.10;;
26977;SDS011;56314;48.088;11.642;2022-12-16T09:53:26;59.65;;;30.23;;
26977;SDS011;56314;48.088;11.642;2022-12-16T09:56:15;64.93;;;31.52;;
26977;SDS011;56314;48.088;11.642;2022-12-16T09:59:03;64.50;;;30.88;;
26977;SDS011;56314;48.088;11.642;2022-12-16T10:01:52;59.15;;;31.02;;
26977;SDS011;56314;48.088;11.642;2022-12-16T10:04:50;66.30;;;30.52;;
26977;SDS011;56314;48.088;11.642;2022-12-16T10:07:35;60.92;;;31.40;;
26977;SDS011;56314;48.088;11.642;2022-12-16T10:10:25;63.90;;;31.20;;
26977;SDS011;56314;48.088;11.642;2022-12-16T10:13:36;62.97;;;31.17;;
26977;SDS011;56314;48.088;11.642;2022-12-16T10:16:41;63.20;;;32.50;;
26977;SDS011;56314;48.088;11.642;2022-12-16T10:29:22;62.60;;;30.60;;
26977;SDS011;56314;48.088;11.642;2022-12-16T10:32:17;54.92;;;28.25;;
26977;SDS011;56314;48.088;11.642;2022-12-16T10:38:13;56.78;;;27.40;;
26977;SDS011;56314;48.088;11.642;2022-12-16T10:41:04;53.85;;;28.85;;
26977;SDS011;56314;48.088;11.642;2022-12-16T10:43:49;52.47;;;28.38;;
26977;SDS011;56314;48.088;11.642;2022-12-16T10:46:35;55.42;;;27.42;;
26977;SDS011;56314;48.088;11.642;2022-12-16T10:49:19;45.95;;;23.13;;
26977;SDS011;56314;48.088;11.642;2022-12-16T10:52:04;64.55;;;31.38;;
26977;SDS011;56314;48.088;11.642;2022-12-16T11:03:27;61.50;;;31.60;;
26977;SDS011;56314;48.088;11.642;2022-12-16T11:06:55;63.97;;;31.10;;
26977;SDS011;56314;48.088;11.642;2022-12-16T11:12:19;65.95;;;32.28;;
26977;SDS011;56314;48.088;11.642;2022-12-16T11:15:16;67.25;;;32.38;;
26977;SDS011;56314;48.088;11.642;2022-12-16T11:18:10;65.03;;;30.77;;
26977;SDS011;56314;48.088;11.642;2022-12-16T11:21:14;62.72;;;32.15;;
26977;SDS011;56314;48.088;11.642;2022-12-16T11:24:13;66.70;;;33.25;;
26977;SDS011;56314;48.088;11.642;2022-12-16T11:27:00;64.72;;;33.85;;
26977;SDS011;56314;48.088;11.642;2022-12-16T11:32:55;65.22;;;32.00;;
26977;SDS011;56314;48.088;11.642;2022-12-16T11:35:47;70.65;;;33.65;;
26977;SDS011;56314;48.088;11.642;2022-12-16T11:38:37;69.00;;;34.13;;
26977;SDS011;56314;48.088;11.642;2022-12-16T11:41:23;67.97;;;33.13;;
26977;SDS011;56314;48.088;11.642;2022-12-16T11:44:12;69.32;;;32.92;;
26977;SDS011;56314;48.088;11.642;2022-12-16T11:47:04;70.97;;;33.78;;
26977;SDS011;56314;48.088;11.642;2022-12-16T11:49:58;63.90;;;33.42;;
26977;SDS011;56314;48.088;11.642;2022-12-16T11:52:43;71.60;;;34.33;;
26977;SDS011;56314;48.088;11.642;2022-12-16T11:55:35;70.72;;;35.15;;
26977;SDS011;56314;48.088;11.642;2022-12-16T11:58:36;66.45;;;33.22;;
26977;SDS011;56314;48.088;11.642;2022-12-16T12:01:37;65.28;;;32.85;;
26977;SDS011;56314;48.088;11.642;2022-12-16T12:04:34;61.72;;;32.63;;
26977;SDS011;56314;48.088;11.642;2022-12-16T12:07:24;68.03;;;33.73;;
26977;SDS011;56314;48.088;11.642;2022-12-16T12:12:56;62.40;;;33.22;;
26977;SDS011;56314;48.088;11.642;2022-12-16T12:15:49;60.58;;;33.03;;
26977;SDS011;56314;48.088;11.642;2022-12-16T12:22:00;67.28;;;33.15;;
26977;SDS011;56314;48.088;11.642;2022-12-16T12:27:46;61.42;;;31.58;;
26977;SDS011;56314;48.088;11.642;2022-12-16T12:30:55;66.85;;;34.60;;
26977;SDS011;56314;48.088;11.642;2022-12-16T12:33:53;68.00;;;33.60;;
26977;SDS011;56314;48.088;11.642;2022-12-16T12:37:07;66.90;;;33.88;;
26977;SDS011;56314;48.088;11.642;2022-12-16T12:43:10;69.50;;;34.08;;
26977;SDS011;56314;48.088;11.642;2022-12-16T12:50:12;68.43;;;32.17;;
26977;SDS011;56314;48.088;11.642;2022-12-16T12:58:48;63.33;;;33.20;;
26977;SDS011;56314;48.088;11.642;2022-12-16T13:01:36;64.32;;;33.30;;
26977;SDS011;56314;48.088;11.642;2022-12-16T13:04:25;67.70;;;33.67;;
26977;SDS011;56314;48.088;11.642;2022-12-16T13:07:11;70.68;;;34.15;;
26977;SDS011;56314;48.088;11.642;2022-12-16T13:13:20;65.18;;;32.95;;
26977;SDS011;56314;48.088;11.642;2022-12-16T13:16:02;69.00;;;34.70;;
26977;SDS011;56314;48.088;11.642;2022-12-16T13:22:25;63.30;;;32.67;;
26977;SDS011;56314;48.088;11.642;2022-12-16T13:28:27;61.40;;;29.95;;
26977;SDS011;56314;48.088;11.642;2022-12-16T13:31:15;67.22;;;33.10;;
26977;SDS011;56314;48.088;11.642;2022-12-16T13:34:17;57.63;;;31.40;;
26977;SDS011;56314;48.088;11.642;2022-12-16T13:37:03;67.10;;;33.67;;
26977;SDS011;56314;48.088;11.642;2022-12-16T13:40:04;59.60;;;32.72;;
26977;SDS011;56314;48.088;11.642;2022-12-16T13:42:56;58.83;;;31.73;;
26977;SDS011;56314;48.088;11.642;2022-12-16T13:46:22;58.42;;;30.83;;
26977;SDS011;56314;48.088;11.642;2022-12-16T13:48:47;60.67;;;31.75;;
26977;SDS011;56314;48.088;11.642;2022-12-16T13:58:00;61.90;;;31.05;;
26977;SDS011;56314;48.088;11.642;2022-12-16T14:00:53;59.65;;;31.60;;
26977;SDS011;56314;48.088;11.642;2022-12-16T14:03:41;65.10;;;32.20;;
26977;SDS011;56314;48.088;11.642;2022-12-16T14:06:28;65.50;;;34.25;;
26977;SDS011;56314;48.088;11.642;2022-12-16T14:09:22;66.45;;;32.15;;
26977;SDS011;56314;48.088;11.642;2022-12-16T14:12:37;57.80;;;30.17;;
26977;SDS011;56314;48.088;11.642;2022-12-16T14:22:01;57.88;;;30.88;;
26977;SDS011;56314;48.088;11.642;2022-12-16T14:25:02;56.38;;;29.58;;
26977;SDS011;56314;48.088;11.642;2022-12-16T14:28:07;55.00;;;28.88;;
26977;SDS011;56314;48.088;11.642;2022-12-16T14:31:04;49.90;;;27.77;;
26977;SDS011;56314;48.088;11.642;2022-12-16T14:33:54;54.05;;;28.58;;
26977;SDS011;56314;48.088;11.642;2022-12-16T14:36:39;53.22;;;27.83;;
26977;SDS011;56314;48.088;11.642;2022-12-16T14:39:29;53.72;;;28.65;;
26977;SDS011;56314;48.088;11.642;2022-12-16T14:42:25;54.72;;;28.80;;
26977;SDS011;56314;48.088;11.642;2022-12-16T14:48:12;58.72;;;31.25;;
26977;SDS011;56314;48.088;11.642;2022-12-16T14:51:13;61.03;;;29.92;;
26977;SDS011;56314;48.088;11.642;2022-12-16T14:57:22;64.55;;;29.85;;
26977;SDS011;56314;48.088;11.642;2022-12-16T15:00:14;62.78;;;30.75;;
26977;SDS011;56314;48.088;11.642;2022-12-16T15:06:25;62.15;;;30.88;;
26977;SDS011;56314;48.088;11.642;2022-12-16T15:09:16;54.63;;;30.23;;
26977;SDS011;56314;48.088;11.642;2022-12-16T15:12:23;57.38;;;28.98;;
26977;SDS011;56314;48.088;11.642;2022-12-16T15:15:25;57.05;;;29.30;;
26977;SDS011;56314;48.088;11.642;2022-12-16T15:18:15;56.75;;;28.67;;
26977;SDS011;56314;48.088;11.642;2022-12-16T15:21:02;60.83;;;29.25;;
26977;SDS011;56314;48.088;11.642;2022-12-16T15:23:46;67.50;;;30.83;;
26977;SDS011;56314;48.088;11.642;2022-12-16T15:26:31;44.72;;;21.65;;
26977;SDS011;56314;48.088;11.642;2022-12-16T15:29:25;56.85;;;30.05;;
26977;SDS011;56314;48.088;11.642;2022-12-16T15:35:08;63.15;;;30.13;;
26977;SDS011;56314;48.088;11.642;2022-12-16T15:37:52;46.75;;;26.40;;
26977;SDS011;56314;48.088;11.642;2022-12-16T15:40:49;53.17;;;26.45;;
26977;SDS011;56314;48.088;11.642;2022-12-16T15:43:37;56.13;;;27.15;;
26977;SDS011;56314;48.088;11.642;2022-12-16T15:46:25;50.60;;;26.85;;
26977;SDS011;56314;48.088;11.642;2022-12-16T15:52:38;50.30;;;27.17;;
26977;SDS011;56314;48.088;11.642;2022-12-16T15:58:22;54.30;;;26.95;;
26977;SDS011;56314;48.088;11.642;2022-12-16T16:01:15;53.42;;;26.02;;
26977;SDS011;56314;48.088;11.642;2022-12-16T16:04:13;48.78;;;25.35;;
26977;SDS011;56314;48.088;11.642;2022-12-16T16:07:01;50.15;;;25.65;;
26977;SDS011;56314;48.088;11.642;2022-12-16T16:09:45;50.10;;;24.90;;
26977;SDS011;56314;48.088;11.642;2022-12-16T16:12:32;50.42;;;25.55;;
26977;SDS011;56314;48.088;11.642;2022-12-16T16:15:16;48.10;;;25.92;;
26977;SDS011;56314;48.088;11.642;2022-12-16T16:18:04;45.40;;;24.88;;
26977;SDS011;56314;48.088;11.642;2022-12-16T16:20:49;51.25;;;24.88;;
26977;SDS011;56314;48.088;11.642;2022-12-16T16:23:33;47.17;;;25.25;;
26977;SDS011;56314;48.088;11.642;2022-12-16T16:26:21;45.75;;;24.95;;
26977;SDS011;56314;48.088;11.642;2022-12-16T16:29:09;47.55;;;24.77;;
26977;SDS011;56314;48.088;11.642;2022-12-16T16:31:53;46.70;;;23.73;;
26977;SDS011;56314;48.088;11.642;2022-12-16T16:34:37;30.75;;;18.92;;
26977;SDS011;56314;48.088;11.642;2022-12-16T16:37:24;40.03;;;19.48;;
26977;SDS011;56314;48.088;11.642;2022-12-16T16:43:04;45.03;;;22.67;;
26977;SDS011;56314;48.088;11.642;2022-12-16T16:45:52;49.42;;;25.33;;
26977;SDS011;56314;48.088;11.642;2022-12-16T16:48:40;42.97;;;22.73;;
26977;SDS011;56314;48.088;11.642;2022-12-16T16:51:48;44.80;;;23.20;;
26977;SDS011;56314;48.088;11.642;2022-12-16T16:54:28;43.47;;;23.60;;
26977;SDS011;56314;48.088;11.642;2022-12-16T16:57:12;47.60;;;24.93;;
26977;SDS011;56314;48.088;11.642;2022-12-16T16:59:56;36.03;;;19.52;;
26977;SDS011;56314;48.088;11.642;2022-12-16T17:02:40;32.83;;;16.73;;
26977;SDS011;56314;48.088;11.642;2022-12-16T17:05:24;45.75;;;24.25;;
26977;SDS011;56314;48.088;11.642;2022-12-16T17:08:08;43.92;;;21.15;;
26977;SDS011;56314;48.088;11.642;2022-12-16T17:10:52;33.35;;;17.02;;
26977;SDS011;56314;48.088;11.642;2022-12-16T17:13:36;47.53;;;22.52;;
26977;SDS011;56314;48.088;11.642;2022-12-16T17:16:20;45.08;;;24.63;;
26977;SDS011;56314;48.088;11.642;2022-12-16T17:19:04;35.80;;;19.02;;
26977;SDS011;56314;48.088;11.642;2022-12-16T17:21:48;33.08;;;17.88;;
26977;SDS011;56314;48.088;11.642;2022-12-16T17:24:32;43.28;;;22.95;;
26977;SDS011;56314;48.088;11.642;2022-12-16T17:27:17;47.25;;;24.30;;
26977;SDS011;56314;48.088;11.642;2022-12-16T17:30:03;51.28;;;26.38;;
26977;SDS011;56314;48.088;11.642;2022-12-16T17:32:54;48.33;;;24.85;;
26977;SDS011;56314;48.088;11.642;2022-12-16T17:35:38;49.05;;;26.95;;
26977;SDS011;56314;48.088;11.642;2022-12-16T17:38:25;47.33;;;24.58;;
26977;SDS011;56314;48.088;11.642;2022-12-16T17:41:14;50.38;;;25.88;;
26977;SDS011;56314;48.088;11.642;2022-12-16T17:44:01;46.55;;;24.67;;
26977;SDS011;56314;48.088;11.642;2022-12-16T17:46:54;52.55;;;26.10;;
26977;SDS011;56314;48.088;11.642;2022-12-16T17:49:38;51.50;;;25.15;;
26977;SDS011;56314;48.088;11.642;2022-12-16T17:52:22;49.55;;;26.45;;
26977;SDS011;56314;48.088;11.642;2022-12-16T17:55:06;54.10;;;26.65;;